sensor_id;sensor_type;location;lat;lon;timestamp;pressure;altitude;pressure_sealevel;temperature;humidity
64889;BME280;51386;53.082;8.816;2022-10-16T00:00:09;100872.50;;;18.72;56.42
64889;BME280;51386;53.082;8.816;2022-10-16T00:02:36;100868.19;;;18.71;56.58
64889;BME280;51386;53.082;8.816;2022-10-16T00:05:05;100871.09;;;18.70;56.28
64889;BME280;51386;53.082;8.816;2022-10-16T00:07:32;100871.09;;;18.70;56.32
64889;BME280;51386;53.082;8.816;2022-10-16T00:09:59;100876.66;;;18.68;56.43
64889;BME280;51386;53.082;8.816;2022-10-16T00:12:28;100886.72;;;18.66;56.41
64889;BME280;51386;53.082;8.816;2022-10-16T00:14:55;100884.94;;;18.60;56.38
64889;BME280;51386;53.082;8.816;2022-10-16T00:17:22;100887.63;;;18.60;56.66
64889;BME280;51386;53.082;8.816;2022-10-16T00:19:50;100874.97;;;18.56;56.47
64889;BME280;51386;53.082;8.816;2022-10-16T00:22:36;100881.78;;;18.52;56.63
64889;BME280;51386;53.082;8.816;2022-10-16T00:25:04;100885.81;;;18.54;56.57
64889;BME280;51386;53.082;8.816;2022-10-16T00:27:33;100894.88;;;18.53;56.55
64889;BME280;51386;53.082;8.816;2022-10-16T00:30:00;100894.72;;;18.48;56.74
64889;BME280;51386;53.082;8.816;2022-10-16T00:32:28;100900.47;;;18.45;56.79
64889;BME280;51386;53.082;8.816;2022-10-16T00:34:55;100904.19;;;18.44;56.79
64889;BME280;51386;53.082;8.816;2022-10-16T00:37:22;100897.22;;;18.43;56.94
64889;BME280;51386;53.082;8.816;2022-10-16T00:39:50;100900.94;;;18.42;56.96
64889;BME280;51386;53.082;8.816;2022-10-16T00:42:18;100901.78;;;18.36;57.01
64889;BME280;51386;53.082;8.816;2022-10-16T00:44:51;100904.69;;;18.35;57.08
64889;BME280;51386;53.082;8.816;2022-10-16T00:47:24;100910.03;;;18.35;57.09
64889;BME280;51386;53.082;8.816;2022-10-16T00:50:00;100905.94;;;18.32;56.88
64889;BME280;51386;53.082;8.816;2022-10-16T00:52:29;100912.91;;;18.33;57.10
64889;BME280;51386;53.082;8.816;2022-10-16T00:54:58;100913.34;;;18.30;57.01
64889;BME280;51386;53.082;8.816;2022-10-16T00:57:26;100911.94;;;18.27;57.18
64889;BME280;51386;53.082;8.816;2022-10-16T00:59:55;100911.34;;;18.25;57.02
64889;BME280;51386;53.082;8.816;2022-10-16T01:02:22;100911.97;;;18.21;57.20
64889;BME280;51386;53.082;8.816;2022-10-16T01:04:52;100907.72;;;18.20;57.14
64889;BME280;51386;53.082;8.816;2022-10-16T01:07:36;100912.28;;;18.13;57.17
64889;BME280;51386;53.082;8.816;2022-10-16T01:10:20;100909.03;;;18.11;57.27
64889;BME280;51386;53.082;8.816;2022-10-16T01:12:56;100909.47;;;18.08;57.27
64889;BME280;51386;53.082;8.816;2022-10-16T01:15:30;100909.91;;;18.05;57.31
64889;BME280;51386;53.082;8.816;2022-10-16T01:18:09;100906.63;;;18.03;57.32
64889;BME280;51386;53.082;8.816;2022-10-16T01:20:47;100903.81;;;17.98;57.28
64889;BME280;51386;53.082;8.816;2022-10-16T01:23:38;100899.38;;;17.92;57.63
64889;BME280;51386;53.082;8.816;2022-10-16T01:26:27;100911.69;;;17.86;57.94
64889;BME280;51386;53.082;8.816;2022-10-16T01:29:07;100909.69;;;17.82;57.94
64889;BME280;51386;53.082;8.816;2022-10-16T01:31:39;100909.69;;;17.82;57.68
64889;BME280;51386;53.082;8.816;2022-10-16T01:34:14;100907.69;;;17.77;57.92
64889;BME280;51386;53.082;8.816;2022-10-16T01:36:47;100914.69;;;17.72;58.02
64889;BME280;51386;53.082;8.816;2022-10-16T01:39:22;100907.75;;;17.71;58.08
64889;BME280;51386;53.082;8.816;2022-10-16T01:41:58;100912.44;;;17.69;58.18
64889;BME280;51386;53.082;8.816;2022-10-16T01:44:33;100915.56;;;17.66;58.37
64889;BME280;51386;53.082;8.816;2022-10-16T01:47:02;100910.22;;;17.66;58.50
64889;BME280;51386;53.082;8.816;2022-10-16T01:49:36;100915.97;;;17.63;58.59
64889;BME280;51386;53.082;8.816;2022-10-16T01:52:09;100914.34;;;17.62;58.69
64889;BME280;51386;53.082;8.816;2022-10-16T01:54:42;100918.47;;;17.57;58.73
64889;BME280;51386;53.082;8.816;2022-10-16T01:57:14;100910.72;;;17.56;58.90
64889;BME280;51386;53.082;8.816;2022-10-16T01:59:48;100914.19;;;17.56;58.87
64889;BME280;51386;53.082;8.816;2022-10-16T02:02:20;100915.22;;;17.55;58.71
64889;BME280;51386;53.082;8.816;2022-10-16T02:04:58;100906.63;;;17.53;58.91
64889;BME280;51386;53.082;8.816;2022-10-16T02:07:27;100899.66;;;17.52;58.95
64889;BME280;51386;53.082;8.816;2022-10-16T02:09:54;100893.31;;;17.53;58.92
64889;BME280;51386;53.082;8.816;2022-10-16T02:12:28;100909.50;;;17.52;58.69
64889;BME280;51386;53.082;8.816;2022-10-16T02:14:58;100912.16;;;17.52;58.93
64889;BME280;51386;53.082;8.816;2022-10-16T02:17:27;100910.75;;;17.49;59.18
64889;BME280;51386;53.082;8.816;2022-10-16T02:19:56;100916.25;;;17.48;59.22
64889;BME280;51386;53.082;8.816;2022-10-16T02:22:32;100925.72;;;17.44;59.04
64889;BME280;51386;53.082;8.816;2022-10-16T02:25:06;100936.56;;;17.42;59.08
64889;BME280;51386;53.082;8.816;2022-10-16T02:27:42;100932.06;;;17.43;59.31
64889;BME280;51386;53.082;8.816;2022-10-16T02:30:21;100923.88;;;17.44;59.05
64889;BME280;51386;53.082;8.816;2022-10-16T02:32:51;100920.16;;;17.45;59.07
64889;BME280;51386;53.082;8.816;2022-10-16T02:35:21;100914.03;;;17.45;59.06
64889;BME280;51386;53.082;8.816;2022-10-16T02:37:51;100912.41;;;17.44;59.24
64889;BME280;51386;53.082;8.816;2022-10-16T02:40:20;100914.25;;;17.43;59.22
64889;BME280;51386;53.082;8.816;2022-10-16T02:42:53;100913.66;;;17.41;59.31
64889;BME280;51386;53.082;8.816;2022-10-16T02:45:24;100900.34;;;17.41;59.39
64889;BME280;51386;53.082;8.816;2022-10-16T02:47:52;100909.94;;;17.42;59.27
64889;BME280;51386;53.082;8.816;2022-10-16T02:50:19;100910.97;;;17.41;59.52
64889;BME280;51386;53.082;8.816;2022-10-16T02:52:47;100907.72;;;17.39;59.35
64889;BME280;51386;53.082;8.816;2022-10-16T02:55:14;100907.50;;;17.41;59.37
64889;BME280;51386;53.082;8.816;2022-10-16T02:57:42;100910.97;;;17.41;59.43
64889;BME280;51386;53.082;8.816;2022-10-16T03:00:13;100921.03;;;17.39;59.44
64889;BME280;51386;53.082;8.816;2022-10-16T03:02:43;100919.38;;;17.38;59.71
64889;BME280;51386;53.082;8.816;2022-10-16T03:05:11;100914.47;;;17.35;59.60
64889;BME280;51386;53.082;8.816;2022-10-16T03:07:38;100915.31;;;17.36;59.49
64889;BME280;51386;53.082;8.816;2022-10-16T03:10:07;100917.78;;;17.37;59.50
64889;BME280;51386;53.082;8.816;2022-10-16T03:12:34;100917.31;;;17.40;59.42
64889;BME280;51386;53.082;8.816;2022-10-16T03:15:02;100922.66;;;17.40;59.48
64889;BME280;51386;53.082;8.816;2022-10-16T03:17:31;100917.31;;;17.40;59.61
64889;BME280;51386;53.082;8.816;2022-10-16T03:20:00;100913.66;;;17.41;59.42
64889;BME280;51386;53.082;8.816;2022-10-16T03:22:27;100917.31;;;17.40;59.60
64889;BME280;51386;53.082;8.816;2022-10-16T03:24:55;100917.31;;;17.40;59.50
64889;BME280;51386;53.082;8.816;2022-10-16T03:27:22;100919.38;;;17.38;59.71
64889;BME280;51386;53.082;8.816;2022-10-16T03:29:50;100917.78;;;17.37;59.73
64889;BME280;51386;53.082;8.816;2022-10-16T03:32:17;100928.41;;;17.37;59.78
64889;BME280;51386;53.082;8.816;2022-10-16T03:34:45;100938.25;;;17.37;59.62
64889;BME280;51386;53.082;8.816;2022-10-16T03:37:14;100929.22;;;17.38;59.86
64889;BME280;51386;53.082;8.816;2022-10-16T03:39:41;100927.59;;;17.37;59.87
64889;BME280;51386;53.082;8.816;2022-10-16T03:42:08;100930.44;;;17.35;59.98
64889;BME280;51386;53.082;8.816;2022-10-16T03:44:36;100922.91;;;17.32;60.16
64889;BME280;51386;53.082;8.816;2022-10-16T03:47:03;100921.50;;;17.30;60.22
64889;BME280;51386;53.082;8.816;2022-10-16T03:49:30;100922.31;;;17.30;60.45
64889;BME280;51386;53.082;8.816;2022-10-16T03:51:58;100924.97;;;17.30;60.48
64889;BME280;51386;53.082;8.816;2022-10-16T03:54:26;100930.91;;;17.32;60.46
64889;BME280;51386;53.082;8.816;2022-10-16T03:56:54;100929.25;;;17.31;60.56
64889;BME280;51386;53.082;8.816;2022-10-16T03:59:21;100930.06;;;17.32;60.83
64889;BME280;51386;53.082;8.816;2022-10-16T04:01:48;100931.31;;;17.29;60.74
64889;BME280;51386;53.082;8.816;2022-10-16T04:04:15;100936.22;;;17.32;60.79
64889;BME280;51386;53.082;8.816;2022-10-16T04:06:43;100937.03;;;17.33;60.99
64889;BME280;51386;53.082;8.816;2022-10-16T04:09:10;100944.81;;;17.34;61.08
64889;BME280;51386;53.082;8.816;2022-10-16T04:11:39;100951.16;;;17.33;60.97
64889;BME280;51386;53.082;8.816;2022-10-16T04:14:06;100950.13;;;17.34;61.25
64889;BME280;51386;53.082;8.816;2022-10-16T04:16:33;100957.50;;;17.32;61.46
64889;BME280;51386;53.082;8.816;2022-10-16T04:19:00;100962.84;;;17.32;61.31
64889;BME280;51386;53.082;8.816;2022-10-16T04:21:28;100965.50;;;17.32;61.37
64889;BME280;51386;53.082;8.816;2022-10-16T04:23:55;100964.44;;;17.33;61.58
64889;BME280;51386;53.082;8.816;2022-10-16T04:26:22;100962.84;;;17.32;61.46
64889;BME280;51386;53.082;8.816;2022-10-16T04:28:51;100953.00;;;17.33;61.55
64889;BME280;51386;53.082;8.816;2022-10-16T04:31:18;100951.97;;;17.34;61.73
64889;BME280;51386;53.082;8.816;2022-10-16T04:33:46;100950.13;;;17.34;61.62
64889;BME280;51386;53.082;8.816;2022-10-16T04:36:13;100948.47;;;17.33;61.85
64889;BME280;51386;53.082;8.816;2022-10-16T04:38:41;100953.19;;;17.31;61.79
64889;BME280;51386;53.082;8.816;2022-10-16T04:41:08;100953.00;;;17.33;62.00
64889;BME280;51386;53.082;8.816;2022-10-16T04:43:35;100960.19;;;17.32;62.12
64889;BME280;51386;53.082;8.816;2022-10-16T04:46:04;100959.56;;;17.30;62.06
64889;BME280;51386;53.082;8.816;2022-10-16T04:48:32;100965.69;;;17.31;62.14
64889;BME280;51386;53.082;8.816;2022-10-16T04:50:59;100962.84;;;17.32;62.05
64889;BME280;51386;53.082;8.816;2022-10-16T04:53:27;100957.06;;;17.35;62.13
64889;BME280;51386;53.082;8.816;2022-10-16T04:55:54;100955.22;;;17.36;62.21
64889;BME280;51386;53.082;8.816;2022-10-16T04:58:22;100967.28;;;17.38;62.13
64889;BME280;51386;53.082;8.816;2022-10-16T05:00:49;100958.28;;;17.39;62.43
64889;BME280;51386;53.082;8.816;2022-10-16T05:03:17;100972.19;;;17.41;62.38
64889;BME280;51386;53.082;8.816;2022-10-16T05:05:46;100968.13;;;17.39;62.51
64889;BME280;51386;53.082;8.816;2022-10-16T05:08:15;100968.94;;;17.39;62.47
64889;BME280;51386;53.082;8.816;2022-10-16T05:10:44;100975.88;;;17.40;62.35
64889;BME280;51386;53.082;8.816;2022-10-16T05:13:12;100981.19;;;17.40;62.83
64889;BME280;51386;53.082;8.816;2022-10-16T05:15:39;100987.56;;;17.39;63.02
64889;BME280;51386;53.082;8.816;2022-10-16T05:18:08;100982.25;;;17.39;63.15
64889;BME280;51386;53.082;8.816;2022-10-16T05:20:36;100987.94;;;17.43;63.14
64889;BME280;51386;53.082;8.816;2022-10-16T05:23:04;100990.81;;;17.41;63.20
64889;BME280;51386;53.082;8.816;2022-10-16T05:25:31;100995.31;;;17.41;63.23
64889;BME280;51386;53.082;8.816;2022-10-16T05:27:58;100988.16;;;17.41;63.28
64889;BME280;51386;53.082;8.816;2022-10-16T05:30:26;100979.13;;;17.42;63.35
64889;BME280;51386;53.082;8.816;2022-10-16T05:32:53;100986.69;;;17.45;63.70
64889;BME280;51386;53.082;8.816;2022-10-16T05:35:21;100998.38;;;17.44;63.53
64889;BME280;51386;53.082;8.816;2022-10-16T05:37:50;101005.72;;;17.49;63.54
64889;BME280;51386;53.082;8.816;2022-10-16T05:40:17;101006.56;;;17.49;63.61
64889;BME280;51386;53.082;8.816;2022-10-16T05:42:44;100998.56;;;17.49;63.70
64889;BME280;51386;53.082;8.816;2022-10-16T05:45:12;101004.25;;;17.59;63.45
64889;BME280;51386;53.082;8.816;2022-10-16T05:47:40;101000.75;;;17.66;63.28
64889;BME280;51386;53.082;8.816;2022-10-16T05:50:08;101005.63;;;17.69;63.41
64889;BME280;51386;53.082;8.816;2022-10-16T05:52:35;101001.91;;;17.76;63.18
64889;BME280;51386;53.082;8.816;2022-10-16T05:55:05;101011.75;;;17.76;63.08
64889;BME280;51386;53.082;8.816;2022-10-16T05:57:33;101017.47;;;17.79;63.11
64889;BME280;51386;53.082;8.816;2022-10-16T06:00:00;101015.38;;;17.81;62.98
64889;BME280;51386;53.082;8.816;2022-10-16T06:02:28;101016.81;;;17.84;62.94
64889;BME280;51386;53.082;8.816;2022-10-16T06:04:55;101027.25;;;17.85;62.77
64889;BME280;51386;53.082;8.816;2022-10-16T06:07:23;101021.13;;;17.85;62.98
64889;BME280;51386;53.082;8.816;2022-10-16T06:09:52;101029.31;;;17.83;62.93
64889;BME280;51386;53.082;8.816;2022-10-16T06:12:21;101026.63;;;17.83;62.84
64889;BME280;51386;53.082;8.816;2022-10-16T06:14:48;101031.78;;;17.85;62.85
64889;BME280;51386;53.082;8.816;2022-10-16T06:17:16;101029.09;;;17.85;62.89
64889;BME280;51386;53.082;8.816;2022-10-16T06:19:43;101036.28;;;17.84;62.79
64889;BME280;51386;53.082;8.816;2022-10-16T06:22:11;101037.09;;;17.85;62.80
64889;BME280;51386;53.082;8.816;2022-10-16T06:24:38;101035.84;;;17.87;62.89
64889;BME280;51386;53.082;8.816;2022-10-16T06:27:06;101043.63;;;17.89;63.00
64889;BME280;51386;53.082;8.816;2022-10-16T06:29:35;101043.63;;;17.89;62.81
64889;BME280;51386;53.082;8.816;2022-10-16T06:32:02;101042.59;;;17.90;62.79
64889;BME280;51386;53.082;8.816;2022-10-16T06:34:29;101047.94;;;17.90;62.86
64889;BME280;51386;53.082;8.816;2022-10-16T06:36:57;101059.19;;;17.92;62.74
64889;BME280;51386;53.082;8.816;2022-10-16T06:39:24;101049.13;;;17.94;62.78
64889;BME280;51386;53.082;8.816;2022-10-16T06:41:51;101056.06;;;17.95;62.57
64889;BME280;51386;53.082;8.816;2022-10-16T06:44:19;101065.69;;;17.96;62.70
64889;BME280;51386;53.082;8.816;2022-10-16T06:46:48;101071.44;;;17.99;62.49
64889;BME280;51386;53.082;8.816;2022-10-16T06:49:15;101076.53;;;18.01;62.51
64889;BME280;51386;53.082;8.816;2022-10-16T06:51:48;101080.03;;;18.01;62.57
64889;BME280;51386;53.082;8.816;2022-10-16T06:54:16;101079.78;;;18.03;62.50
64889;BME280;51386;53.082;8.816;2022-10-16T06:56:44;101089.81;;;18.07;62.37
64889;BME280;51386;53.082;8.816;2022-10-16T06:59:12;101093.47;;;18.13;62.49
64889;BME280;51386;53.082;8.816;2022-10-16T07:01:39;101091.41;;;18.15;62.17
64889;BME280;51386;53.082;8.816;2022-10-16T07:04:08;101092.66;;;18.12;62.13
64889;BME280;51386;53.082;8.816;2022-10-16T07:06:35;101095.09;;;18.14;62.22
64889;BME280;51386;53.082;8.816;2022-10-16T07:09:06;101099.81;;;18.12;62.03
64889;BME280;51386;53.082;8.816;2022-10-16T07:11:34;101111.06;;;18.14;62.26
64889;BME280;51386;53.082;8.816;2022-10-16T07:14:02;101113.31;;;18.17;62.25
64889;BME280;51386;53.082;8.816;2022-10-16T07:16:32;101120.88;;;18.20;62.25
64889;BME280;51386;53.082;8.816;2022-10-16T07:19:01;101129.88;;;18.25;62.13
64889;BME280;51386;53.082;8.816;2022-10-16T07:21:33;101120.41;;;18.30;61.98
64889;BME280;51386;53.082;8.816;2022-10-16T07:24:06;101127.75;;;18.34;62.13
64889;BME280;51386;53.082;8.816;2022-10-16T07:26:36;101127.50;;;18.42;61.80
64889;BME280;51386;53.082;8.816;2022-10-16T07:29:04;101130.09;;;18.55;61.61
64889;BME280;51386;53.082;8.816;2022-10-16T07:31:31;101132.69;;;18.62;61.19
64889;BME280;51386;53.082;8.816;2022-10-16T07:34:00;101141.88;;;18.72;61.33
64889;BME280;51386;53.082;8.816;2022-10-16T07:36:27;101147.66;;;18.87;60.63
64889;BME280;51386;53.082;8.816;2022-10-16T07:38:56;101141.47;;;18.93;60.54
64889;BME280;51386;53.082;8.816;2022-10-16T07:41:27;101151.72;;;18.97;60.48
64889;BME280;51386;53.082;8.816;2022-10-16T07:43:55;101153.31;;;18.98;60.08
64889;BME280;51386;53.082;8.816;2022-10-16T07:46:27;101154.38;;;18.97;60.29
64889;BME280;51386;53.082;8.816;2022-10-16T07:48:55;101157.84;;;18.97;59.95
64889;BME280;51386;53.082;8.816;2022-10-16T07:51:24;101156.44;;;18.94;60.44
64889;BME280;51386;53.082;8.816;2022-10-16T07:53:52;101170.81;;;18.93;60.17
64889;BME280;51386;53.082;8.816;2022-10-16T07:56:21;101174.50;;;18.92;60.22
64889;BME280;51386;53.082;8.816;2022-10-16T07:58:50;101174.91;;;18.96;60.35
64889;BME280;51386;53.082;8.816;2022-10-16T08:01:18;101172.00;;;18.98;60.18
64889;BME280;51386;53.082;8.816;2022-10-16T08:03:49;101173.53;;;19.12;60.16
64889;BME280;51386;53.082;8.816;2022-10-16T08:06:18;101180.34;;;19.26;59.63
64889;BME280;51386;53.082;8.816;2022-10-16T08:08:53;101182.88;;;19.21;59.40
64889;BME280;51386;53.082;8.816;2022-10-16T08:11:21;101181.09;;;19.33;59.41
64889;BME280;51386;53.082;8.816;2022-10-16T08:13:50;101184.88;;;19.50;58.95
64889;BME280;51386;53.082;8.816;2022-10-16T08:16:17;101186.50;;;19.69;58.86
64889;BME280;51386;53.082;8.816;2022-10-16T08:18:45;101191.63;;;19.89;57.76
64889;BME280;51386;53.082;8.816;2022-10-16T08:21:15;101189.44;;;19.97;57.72
64889;BME280;51386;53.082;8.816;2022-10-16T08:23:47;101203.34;;;20.06;57.11
64889;BME280;51386;53.082;8.816;2022-10-16T08:26:26;101207.09;;;20.16;56.84
64889;BME280;51386;53.082;8.816;2022-10-16T08:28:54;101208.81;;;20.29;56.92
64889;BME280;51386;53.082;8.816;2022-10-16T08:31:22;101208.41;;;20.44;56.62
64889;BME280;51386;53.082;8.816;2022-10-16T08:33:50;101209.97;;;20.63;56.08
64889;BME280;51386;53.082;8.816;2022-10-16T08:36:18;101211.84;;;20.74;55.29
64889;BME280;51386;53.082;8.816;2022-10-16T08:38:49;101220.00;;;20.79;55.24
64889;BME280;51386;53.082;8.816;2022-10-16T08:45:08;101214.53;;;21.15;53.60
64889;BME280;51386;53.082;8.816;2022-10-16T08:47:49;101225.19;;;21.85;53.63
64889;BME280;51386;53.082;8.816;2022-10-16T08:50:25;101224.38;;;22.24;51.89
64889;BME280;51386;53.082;8.816;2022-10-16T08:52:55;101225.69;;;22.21;50.85
64889;BME280;51386;53.082;8.816;2022-10-16T08:55:33;101238.38;;;22.26;50.20
64889;BME280;51386;53.082;8.816;2022-10-16T08:58:13;101237.19;;;22.34;50.58
64889;BME280;51386;53.082;8.816;2022-10-16T09:00:44;101241.47;;;22.35;49.92
64889;BME280;51386;53.082;8.816;2022-10-16T09:03:29;101240.84;;;22.44;50.07
64889;BME280;51386;53.082;8.816;2022-10-16T09:12:03;101254.97;;;22.79;49.04
64889;BME280;51386;53.082;8.816;2022-10-16T09:14:52;101261.16;;;23.13;48.46
64889;BME280;51386;53.082;8.816;2022-10-16T09:17:37;101264.72;;;23.69;46.92
64889;BME280;51386;53.082;8.816;2022-10-16T09:20:26;101261.94;;;24.23;45.93
64889;BME280;51386;53.082;8.816;2022-10-16T09:23:10;101263.69;;;24.61;44.25
64889;BME280;51386;53.082;8.816;2022-10-16T09:25:45;101266.44;;;25.20;44.41
64889;BME280;51386;53.082;8.816;2022-10-16T09:28:15;101267.72;;;26.01;43.78
64889;BME280;51386;53.082;8.816;2022-10-16T09:30:45;101273.84;;;26.48;41.93
64889;BME280;51386;53.082;8.816;2022-10-16T09:33:15;101271.66;;;26.30;40.54
64889;BME280;51386;53.082;8.816;2022-10-16T09:35:45;101271.97;;;25.87;40.88
64889;BME280;51386;53.082;8.816;2022-10-16T09:38:28;101273.97;;;25.23;40.70
64889;BME280;51386;53.082;8.816;2022-10-16T09:40:58;101283.22;;;24.73;42.54
64889;BME280;51386;53.082;8.816;2022-10-16T09:43:36;101276.81;;;24.53;42.80
64889;BME280;51386;53.082;8.816;2022-10-16T09:46:21;101290.09;;;24.38;42.71
64889;BME280;51386;53.082;8.816;2022-10-16T09:48:51;101270.72;;;24.36;43.55
64889;BME280;51386;53.082;8.816;2022-10-16T09:51:26;101280.09;;;24.33;43.42
64889;BME280;51386;53.082;8.816;2022-10-16T09:53:59;101281.03;;;24.44;43.50
64889;BME280;51386;53.082;8.816;2022-10-16T09:56:29;101274.69;;;24.55;42.13
64889;BME280;51386;53.082;8.816;2022-10-16T09:59:07;101280.41;;;24.85;42.25
64889;BME280;51386;53.082;8.816;2022-10-16T10:01:39;101289.31;;;25.17;41.92
64889;BME280;51386;53.082;8.816;2022-10-16T10:04:08;101295.88;;;25.31;41.43
64889;BME280;51386;53.082;8.816;2022-10-16T10:06:43;101303.41;;;25.29;41.16
64889;BME280;51386;53.082;8.816;2022-10-16T10:09:19;101304.44;;;25.23;41.02
64889;BME280;51386;53.082;8.816;2022-10-16T10:11:53;101301.88;;;25.38;41.62
64889;BME280;51386;53.082;8.816;2022-10-16T10:14:29;101307.44;;;25.59;40.38
64889;BME280;51386;53.082;8.816;2022-10-16T10:17:16;101302.34;;;25.62;40.54
64889;BME280;51386;53.082;8.816;2022-10-16T10:19:53;101306.38;;;25.60;41.17
64889;BME280;51386;53.082;8.816;2022-10-16T10:22:26;101319.50;;;25.51;40.50
64889;BME280;51386;53.082;8.816;2022-10-16T10:24:57;101312.06;;;25.31;40.77
64889;BME280;51386;53.082;8.816;2022-10-16T10:27:38;101328.78;;;25.02;40.62
64889;BME280;51386;53.082;8.816;2022-10-16T10:30:18;101325.13;;;24.86;41.17
64889;BME280;51386;53.082;8.816;2022-10-16T10:33:08;101334.66;;;24.72;41.56
64889;BME280;51386;53.082;8.816;2022-10-16T10:35:47;101331.56;;;24.63;41.66
64889;BME280;51386;53.082;8.816;2022-10-16T10:38:40;101324.75;;;24.56;42.22
64889;BME280;51386;53.082;8.816;2022-10-16T10:41:33;101332.34;;;24.37;41.95
64889;BME280;51386;53.082;8.816;2022-10-16T10:44:16;101346.81;;;24.31;42.84
64889;BME280;51386;53.082;8.816;2022-10-16T10:46:51;101340.13;;;24.34;42.78
64889;BME280;51386;53.082;8.816;2022-10-16T10:49:46;101347.81;;;24.25;42.84
64889;BME280;51386;53.082;8.816;2022-10-16T10:52:46;101342.69;;;24.23;43.10
64889;BME280;51386;53.082;8.816;2022-10-16T10:55:31;101341.75;;;24.35;42.40
64889;BME280;51386;53.082;8.816;2022-10-16T10:58:25;101331.91;;;24.23;41.30
64889;BME280;51386;53.082;8.816;2022-10-16T11:01:07;101341.47;;;24.79;41.21
64889;BME280;51386;53.082;8.816;2022-10-16T11:04:04;101344.56;;;25.46;39.93
64889;BME280;51386;53.082;8.816;2022-10-16T11:06:44;101345.97;;;26.43;37.91
64889;BME280;51386;53.082;8.816;2022-10-16T11:09:20;101345.34;;;27.23;36.80
64889;BME280;51386;53.082;8.816;2022-10-16T11:11:56;101343.97;;;27.86;35.70
64889;BME280;51386;53.082;8.816;2022-10-16T11:14:31;101343.16;;;27.95;35.51
64889;BME280;51386;53.082;8.816;2022-10-16T11:17:07;101349.63;;;27.94;35.91
64889;BME280;51386;53.082;8.816;2022-10-16T11:19:41;101355.63;;;27.76;35.66
64889;BME280;51386;53.082;8.816;2022-10-16T11:22:19;101361.59;;;27.73;35.11
64889;BME280;51386;53.082;8.816;2022-10-16T11:24:53;101352.69;;;27.47;35.53
64889;BME280;51386;53.082;8.816;2022-10-16T11:27:37;101359.16;;;27.21;35.07
64889;BME280;51386;53.082;8.816;2022-10-16T11:30:17;101369.16;;;27.26;35.05
64889;BME280;51386;53.082;8.816;2022-10-16T11:33:13;101365.91;;;27.29;34.83
64889;BME280;51386;53.082;8.816;2022-10-16T11:35:50;101362.13;;;27.10;35.07
64889;BME280;51386;53.082;8.816;2022-10-16T11:38:29;101372.06;;;26.79;35.49
64889;BME280;51386;53.082;8.816;2022-10-16T11:41:15;101374.34;;;26.50;36.22
64889;BME280;51386;53.082;8.816;2022-10-16T11:43:56;101380.41;;;26.20;36.76
64889;BME280;51386;53.082;8.816;2022-10-16T11:46:29;101381.66;;;26.03;36.88
64889;BME280;51386;53.082;8.816;2022-10-16T11:49:09;101389.06;;;25.81;36.73
64889;BME280;51386;53.082;8.816;2022-10-16T11:51:45;101385.16;;;25.67;37.04
64889;BME280;51386;53.082;8.816;2022-10-16T11:54:26;101394.97;;;25.46;37.84
64889;BME280;51386;53.082;8.816;2022-10-16T11:57:02;101397.19;;;25.27;36.80
64889;BME280;51386;53.082;8.816;2022-10-16T11:59:43;101389.53;;;25.14;38.08
64889;BME280;51386;53.082;8.816;2022-10-16T12:02:33;101390.81;;;25.07;38.00
64889;BME280;51386;53.082;8.816;2022-10-16T12:05:18;101394.44;;;25.17;37.17
64889;BME280;51386;53.082;8.816;2022-10-16T12:08:00;101400.25;;;25.68;36.81
64889;BME280;51386;53.082;8.816;2022-10-16T12:10:32;101414.34;;;25.75;36.38
64889;BME280;51386;53.082;8.816;2022-10-16T12:13:33;101408.94;;;25.75;36.93
64889;BME280;51386;53.082;8.816;2022-10-16T12:16:21;101410.94;;;25.52;36.09
64889;BME280;51386;53.082;8.816;2022-10-16T12:19:07;101419.22;;;25.46;36.31
64889;BME280;51386;53.082;8.816;2022-10-16T12:21:37;101414.50;;;25.31;37.12
64889;BME280;51386;53.082;8.816;2022-10-16T12:24:06;101421.44;;;25.27;36.93
64889;BME280;51386;53.082;8.816;2022-10-16T12:26:39;101426.91;;;25.32;37.18
64889;BME280;51386;53.082;8.816;2022-10-16T12:29:22;101427.41;;;25.29;37.67
64889;BME280;51386;53.082;8.816;2022-10-16T12:31:51;101436.69;;;25.38;37.73
64889;BME280;51386;53.082;8.816;2022-10-16T12:34:31;101440.59;;;25.79;36.38
64889;BME280;51386;53.082;8.816;2022-10-16T12:37:13;101430.38;;;26.23;36.00
64889;BME280;51386;53.082;8.816;2022-10-16T12:39:42;101439.06;;;26.30;35.11
64889;BME280;51386;53.082;8.816;2022-10-16T12:42:33;101453.66;;;25.97;36.00
64889;BME280;51386;53.082;8.816;2022-10-16T12:45:01;101457.56;;;25.80;35.41
64889;BME280;51386;53.082;8.816;2022-10-16T12:47:50;101472.59;;;25.71;35.22
64889;BME280;51386;53.082;8.816;2022-10-16T12:50:29;101467.31;;;25.54;34.56
64889;BME280;51386;53.082;8.816;2022-10-16T12:53:02;101469.09;;;25.43;35.08
64889;BME280;51386;53.082;8.816;2022-10-16T12:55:42;101461.88;;;25.27;35.07
64889;BME280;51386;53.082;8.816;2022-10-16T12:58:41;101465.50;;;25.11;34.94
64889;BME280;51386;53.082;8.816;2022-10-16T13:01:25;101467.22;;;25.22;35.62
64889;BME280;51386;53.082;8.816;2022-10-16T13:04:34;101459.81;;;25.34;34.46
64889;BME280;51386;53.082;8.816;2022-10-16T13:07:35;101469.66;;;25.45;34.44
64889;BME280;51386;53.082;8.816;2022-10-16T13:10:19;101470.88;;;25.60;34.77
64889;BME280;51386;53.082;8.816;2022-10-16T13:13:37;101473.53;;;25.54;34.51
64889;BME280;51386;53.082;8.816;2022-10-16T13:16:18;101482.69;;;25.53;34.81
64889;BME280;51386;53.082;8.816;2022-10-16T13:19:03;101477.81;;;25.50;34.73
64889;BME280;51386;53.082;8.816;2022-10-16T13:21:47;101486.31;;;25.42;34.55
64889;BME280;51386;53.082;8.816;2022-10-16T13:24:43;101494.78;;;25.29;35.47
64889;BME280;51386;53.082;8.816;2022-10-16T13:27:29;101492.50;;;25.16;34.99
64889;BME280;51386;53.082;8.816;2022-10-16T13:30:12;101503.16;;;25.06;35.50